sensor_id;sensor_type;location;lat;lon;timestamp;temperature;humidity
11583;DHT22;34299;50.820;4.548;2023-07-28T00:02:04;17.20;99.90
11583;DHT22;34299;50.820;4.548;2023-07-28T00:04:31;17.20;99.90
11583;DHT22;34299;50.820;4.548;2023-07-28T00:06:58;17.20;99.90
11583;DHT22;34299;50.820;4.548;2023-07-28T00:09:25;17.20;99.90
11583;DHT22;34299;50.820;4.548;2023-07-28T00:11:52;17.10;99.90
11583;DHT22;34299;50.820;4.548;2023-07-28T00:14:19;17.20;99.90
11583;DHT22;34299;50.820;4.548;2023-07-28T00:16:46;17.20;99.90
11583;DHT22;34299;50.820;4.548;2023-07-28T00:19:17;17.30;99.90
11583;DHT22;34299;50.820;4.548;2023-07-28T00:21:44;17.20;99.90
11583;DHT22;34299;50.820;4.548;2023-07-28T00:24:10;17.30;99.90
11583;DHT22;34299;50.820;4.548;2023-07-28T00:26:37;17.10;99.90
11583;DHT22;34299;50.820;4.548;2023-07-28T00:29:04;17.20;99.90
11583;DHT22;34299;50.820;4.548;2023-07-28T00:31:32;17.20;99.90
11583;DHT22;34299;50.820;4.548;2023-07-28T00:33:59;17.20;99.90
11583;DHT22;34299;50.820;4.548;2023-07-28T00:36:27;17.20;99.90
11583;DHT22;34299;50.820;4.548;2023-07-28T00:38:54;17.20;99.90
11583;DHT22;34299;50.820;4.548;2023-07-28T00:41:21;17.30;99.90
11583;DHT22;34299;50.820;4.548;2023-07-28T00:43:48;17.30;99.90
11583;DHT22;34299;50.820;4.548;2023-07-28T00:46:16;17.20;99.90
11583;DHT22;34299;50.820;4.548;2023-07-28T00:48:43;17.30;99.90
11583;DHT22;34299;50.820;4.548;2023-07-28T00:51:11;17.20;99.90
11583;DHT22;34299;50.820;4.548;2023-07-28T00:53:40;17.30;99.90
11583;DHT22;34299;50.820;4.548;2023-07-28T00:56:07;17.30;99.90
11583;DHT22;34299;50.820;4.548;2023-07-28T00:58:34;17.30;99.90
11583;DHT22;34299;50.820;4.548;2023-07-28T01:01:01;17.40;99.90
11583;DHT22;34299;50.820;4.548;2023-07-28T01:03:28;17.30;99.90
11583;DHT22;34299;50.820;4.548;2023-07-28T01:06:07;17.40;99.90
11583;DHT22;34299;50.820;4.548;2023-07-28T01:08:46;17.30;99.90
11583;DHT22;34299;50.820;4.548;2023-07-28T01:11:14;17.40;99.90
11583;DHT22;34299;50.820;4.548;2023-07-28T01:13:41;17.30;99.90
11583;DHT22;34299;50.820;4.548;2023-07-28T01:16:08;17.30;99.90
11583;DHT22;34299;50.820;4.548;2023-07-28T01:18:35;17.30;99.90
11583;DHT22;34299;50.820;4.548;2023-07-28T01:21:05;17.30;99.90
11583;DHT22;34299;50.820;4.548;2023-07-28T01:23:40;17.30;99.90
11583;DHT22;34299;50.820;4.548;2023-07-28T01:26:15;17.40;99.90
11583;DHT22;34299;50.820;4.548;2023-07-28T01:28:44;17.30;99.90
11583;DHT22;34299;50.820;4.548;2023-07-28T01:31:11;17.40;99.90
11583;DHT22;34299;50.820;4.548;2023-07-28T01:33:38;17.40;99.90
11583;DHT22;34299;50.820;4.548;2023-07-28T01:36:05;17.30;99.90
11583;DHT22;34299;50.820;4.548;2023-07-28T01:38:32;17.40;99.90
11583;DHT22;34299;50.820;4.548;2023-07-28T01:40:59;17.30;99.90
11583;DHT22;34299;50.820;4.548;2023-07-28T01:43:26;17.40;99.90
11583;DHT22;34299;50.820;4.548;2023-07-28T01:45:54;17.30;99.90
11583;DHT22;34299;50.820;4.548;2023-07-28T01:48:21;17.40;99.90
11583;DHT22;34299;50.820;4.548;2023-07-28T01:50:48;17.70;99.90
11583;DHT22;34299;50.820;4.548;2023-07-28T01:53:15;17.30;99.90
11583;DHT22;34299;50.820;4.548;2023-07-28T01:55:42;17.40;99.90
11583;DHT22;34299;50.820;4.548;2023-07-28T01:58:09;17.30;99.90
11583;DHT22;34299;50.820;4.548;2023-07-28T02:00:36;17.40;99.90
11583;DHT22;34299;50.820;4.548;2023-07-28T02:03:04;17.30;99.90
11583;DHT22;34299;50.820;4.548;2023-07-28T02:05:32;17.30;99.90
11583;DHT22;34299;50.820;4.548;2023-07-28T02:08:00;17.40;99.90
11583;DHT22;34299;50.820;4.548;2023-07-28T02:10:27;17.30;99.90
11583;DHT22;34299;50.820;4.548;2023-07-28T02:12:54;17.30;99.90
11583;DHT22;34299;50.820;4.548;2023-07-28T02:15:21;17.30;99.90
11583;DHT22;34299;50.820;4.548;2023-07-28T02:17:48;17.20;99.90
11583;DHT22;34299;50.820;4.548;2023-07-28T02:20:17;17.30;99.90
11583;DHT22;34299;50.820;4.548;2023-07-28T02:22:44;17.30;99.90
11583;DHT22;34299;50.820;4.548;2023-07-28T02:25:11;17.40;99.90
11583;DHT22;34299;50.820;4.548;2023-07-28T02:27:38;17.40;99.90
11583;DHT22;34299;50.820;4.548;2023-07-28T02:30:06;17.40;99.90
11583;DHT22;34299;50.820;4.548;2023-07-28T02:32:33;17.40;99.90
11583;DHT22;34299;50.820;4.548;2023-07-28T02:35:01;17.40;99.90
11583;DHT22;34299;50.820;4.548;2023-07-28T02:37:29;17.40;99.90
11583;DHT22;34299;50.820;4.548;2023-07-28T02:39:56;17.30;99.90
11583;DHT22;34299;50.820;4.548;2023-07-28T02:42:23;17.30;99.90
11583;DHT22;34299;50.820;4.548;2023-07-28T02:44:50;17.20;99.90
11583;DHT22;34299;50.820;4.548;2023-07-28T02:47:17;17.30;99.90
11583;DHT22;34299;50.820;4.548;2023-07-28T02:49:44;17.30;99.90
11583;DHT22;34299;50.820;4.548;2023-07-28T02:52:11;17.30;99.90
11583;DHT22;34299;50.820;4.548;2023-07-28T02:54:40;17.20;99.90
11583;DHT22;34299;50.820;4.548;2023-07-28T02:57:07;17.30;99.90
11583;DHT22;34299;50.820;4.548;2023-07-28T02:59:34;17.30;99.90
11583;DHT22;34299;50.820;4.548;2023-07-28T03:02:01;17.30;99.90
11583;DHT22;34299;50.820;4.548;2023-07-28T03:04:28;17.30;99.90
11583;DHT22;34299;50.820;4.548;2023-07-28T03:06:55;17.30;99.90
11583;DHT22;34299;50.820;4.548;2023-07-28T03:09:22;17.30;99.90
11583;DHT22;34299;50.820;4.548;2023-07-28T03:11:50;17.30;99.90
11583;DHT22;34299;50.820;4.548;2023-07-28T03:14:17;17.30;99.90
11583;DHT22;34299;50.820;4.548;2023-07-28T03:16:44;17.30;99.90
11583;DHT22;34299;50.820;4.548;2023-07-28T03:19:11;17.30;99.90
11583;DHT22;34299;50.820;4.548;2023-07-28T03:21:38;17.20;99.90
11583;DHT22;34299;50.820;4.548;2023-07-28T03:24:05;17.20;99.90
11583;DHT22;34299;50.820;4.548;2023-07-28T03:26:32;17.30;99.90
11583;DHT22;34299;50.820;4.548;2023-07-28T03:29:00;17.30;99.90
11583;DHT22;34299;50.820;4.548;2023-07-28T03:31:27;17.20;99.90
11583;DHT22;34299;50.820;4.548;2023-07-28T03:33:54;17.10;99.90
11583;DHT22;34299;50.820;4.548;2023-07-28T03:36:21;17.30;99.90
11583;DHT22;34299;50.820;4.548;2023-07-28T03:38:48;17.30;99.90
11583;DHT22;34299;50.820;4.548;2023-07-28T03:41:15;17.30;99.90
11583;DHT22;34299;50.820;4.548;2023-07-28T03:43:42;17.30;99.90
11583;DHT22;34299;50.820;4.548;2023-07-28T03:46:10;17.20;99.90
11583;DHT22;34299;50.820;4.548;2023-07-28T03:48:37;17.20;99.90
11583;DHT22;34299;50.820;4.548;2023-07-28T03:51:04;17.30;99.90
11583;DHT22;34299;50.820;4.548;2023-07-28T03:53:31;17.30;99.90
11583;DHT22;34299;50.820;4.548;2023-07-28T03:56:00;17.20;99.90
11583;DHT22;34299;50.820;4.548;2023-07-28T03:58:27;17.20;99.90
11583;DHT22;34299;50.820;4.548;2023-07-28T04:00:54;17.30;99.90
11583;DHT22;34299;50.820;4.548;2023-07-28T04:03:23;17.30;99.90
11583;DHT22;34299;50.820;4.548;2023-07-28T04:05:50;17.30;99.90
11583;DHT22;34299;50.820;4.548;2023-07-28T04:08:17;17.30;99.90
11583;DHT22;34299;50.820;4.548;2023-07-28T04:10:44;17.30;99.90
11583;DHT22;34299;50.820;4.548;2023-07-28T04:13:11;17.30;99.90
11583;DHT22;34299;50.820;4.548;2023-07-28T04:15:37;17.30;99.90
11583;DHT22;34299;50.820;4.548;2023-07-28T04:18:04;17.30;99.90
11583;DHT22;34299;50.820;4.548;2023-07-28T04:20:33;17.30;99.90
11583;DHT22;34299;50.820;4.548;2023-07-28T04:23:00;17.10;99.90
11583;DHT22;34299;50.820;4.548;2023-07-28T04:25:27;17.30;99.90
11583;DHT22;34299;50.820;4.548;2023-07-28T04:27:54;17.30;99.90
11583;DHT22;34299;50.820;4.548;2023-07-28T04:30:22;17.40;99.90
11583;DHT22;34299;50.820;4.548;2023-07-28T04:32:48;17.30;99.90
11583;DHT22;34299;50.820;4.548;2023-07-28T04:35:15;17.30;99.90
11583;DHT22;34299;50.820;4.548;2023-07-28T04:37:44;17.40;99.90
11583;DHT22;34299;50.820;4.548;2023-07-28T04:40:12;17.40;99.90
11583;DHT22;34299;50.820;4.548;2023-07-28T04:42:39;17.40;99.90
11583;DHT22;34299;50.820;4.548;2023-07-28T04:45:06;17.40;99.90
11583;DHT22;34299;50.820;4.548;2023-07-28T04:47:34;17.30;99.90
11583;DHT22;34299;50.820;4.548;2023-07-28T04:50:01;17.40;99.90
11583;DHT22;34299;50.820;4.548;2023-07-28T04:52:27;17.40;99.90
11583;DHT22;34299;50.820;4.548;2023-07-28T04:54:56;17.30;99.90
11583;DHT22;34299;50.820;4.548;2023-07-28T04:57:23;17.40;99.90
11583;DHT22;34299;50.820;4.548;2023-07-28T04:59:49;17.50;99.90
11583;DHT22;34299;50.820;4.548;2023-07-28T05:02:17;17.50;99.90
11583;DHT22;34299;50.820;4.548;2023-07-28T05:04:44;17.40;99.90
11583;DHT22;34299;50.820;4.548;2023-07-28T05:07:11;17.50;99.90
11583;DHT22;34299;50.820;4.548;2023-07-28T05:09:38;17.40;99.90
11583;DHT22;34299;50.820;4.548;2023-07-28T05:12:07;17.50;99.90
11583;DHT22;34299;50.820;4.548;2023-07-28T05:14:34;17.50;99.90
11583;DHT22;34299;50.820;4.548;2023-07-28T05:17:01;17.60;99.90
11583;DHT22;34299;50.820;4.548;2023-07-28T05:19:28;17.50;99.90
11583;DHT22;34299;50.820;4.548;2023-07-28T05:21:55;17.60;99.90
11583;DHT22;34299;50.820;4.548;2023-07-28T05:24:22;17.60;99.90
11583;DHT22;34299;50.820;4.548;2023-07-28T05:26:49;17.60;99.90
11583;DHT22;34299;50.820;4.548;2023-07-28T05:29:17;17.60;99.90
11583;DHT22;34299;50.820;4.548;2023-07-28T05:31:44;17.70;99.90
11583;DHT22;34299;50.820;4.548;2023-07-28T05:34:11;17.70;99.90
11583;DHT22;34299;50.820;4.548;2023-07-28T05:36:39;17.70;99.90
11583;DHT22;34299;50.820;4.548;2023-07-28T05:39:06;17.80;99.90
11583;DHT22;34299;50.820;4.548;2023-07-28T05:41:33;17.80;99.90
11583;DHT22;34299;50.820;4.548;2023-07-28T05:44:00;17.80;99.90
11583;DHT22;34299;50.820;4.548;2023-07-28T05:46:28;17.80;99.90
11583;DHT22;34299;50.820;4.548;2023-07-28T05:48:55;17.80;99.90
11583;DHT22;34299;50.820;4.548;2023-07-28T05:51:22;17.80;99.90
11583;DHT22;34299;50.820;4.548;2023-07-28T05:53:49;17.80;99.90
11583;DHT22;34299;50.820;4.548;2023-07-28T05:56:17;17.90;99.90
11583;DHT22;34299;50.820;4.548;2023-07-28T05:58:45;18.00;99.90
11583;DHT22;34299;50.820;4.548;2023-07-28T06:01:12;18.00;99.90
11583;DHT22;34299;50.820;4.548;2023-07-28T06:03:41;18.00;99.90
11583;DHT22;34299;50.820;4.548;2023-07-28T06:06:08;17.90;99.90
11583;DHT22;34299;50.820;4.548;2023-07-28T06:08:35;18.00;99.90
11583;DHT22;34299;50.820;4.548;2023-07-28T06:11:03;17.90;99.90
11583;DHT22;34299;50.820;4.548;2023-07-28T06:13:31;18.00;99.90
11583;DHT22;34299;50.820;4.548;2023-07-28T06:15:58;17.90;99.90
11583;DHT22;34299;50.820;4.548;2023-07-28T06:18:25;18.00;99.90
11583;DHT22;34299;50.820;4.548;2023-07-28T06:20:54;18.10;99.90
11583;DHT22;34299;50.820;4.548;2023-07-28T06:23:21;18.10;99.90
11583;DHT22;34299;50.820;4.548;2023-07-28T06:25:48;18.00;99.90
11583;DHT22;34299;50.820;4.548;2023-07-28T06:28:15;18.20;99.90
11583;DHT22;34299;50.820;4.548;2023-07-28T06:30:42;18.20;99.90
11583;DHT22;34299;50.820;4.548;2023-07-28T06:33:09;18.20;99.90
11583;DHT22;34299;50.820;4.548;2023-07-28T06:35:36;18.20;99.90
11583;DHT22;34299;50.820;4.548;2023-07-28T06:38:05;18.20;99.90
11583;DHT22;34299;50.820;4.548;2023-07-28T06:40:32;18.20;99.90
11583;DHT22;34299;50.820;4.548;2023-07-28T06:42:59;18.20;99.90
11583;DHT22;34299;50.820;4.548;2023-07-28T06:45:26;18.30;99.90
11583;DHT22;34299;50.820;4.548;2023-07-28T06:47:53;18.30;99.90
11583;DHT22;34299;50.820;4.548;2023-07-28T06:50:20;18.40;99.90
11583;DHT22;34299;50.820;4.548;2023-07-28T06:52:47;18.30;99.90
11583;DHT22;34299;50.820;4.548;2023-07-28T06:55:17;18.50;99.90
11583;DHT22;34299;50.820;4.548;2023-07-28T06:57:44;18.60;99.90
11583;DHT22;34299;50.820;4.548;2023-07-28T07:00:12;18.70;99.90
11583;DHT22;34299;50.820;4.548;2023-07-28T07:02:40;18.70;99.90
11583;DHT22;34299;50.820;4.548;2023-07-28T07:05:07;18.80;99.90
11583;DHT22;34299;50.820;4.548;2023-07-28T07:07:34;18.80;99.90
11583;DHT22;34299;50.820;4.548;2023-07-28T07:10:02;18.80;99.90
11583;DHT22;34299;50.820;4.548;2023-07-28T07:12:31;18.80;99.90
11583;DHT22;34299;50.820;4.548;2023-07-28T07:14:57;18.80;99.90
11583;DHT22;34299;50.820;4.548;2023-07-28T07:17:24;18.90;99.90
11583;DHT22;34299;50.820;4.548;2023-07-28T07:19:51;19.10;99.90
11583;DHT22;34299;50.820;4.548;2023-07-28T07:22:18;19.10;99.90
11583;DHT22;34299;50.820;4.548;2023-07-28T07:24:45;19.30;99.90
11583;DHT22;34299;50.820;4.548;2023-07-28T07:27:12;19.40;99.90
11583;DHT22;34299;50.820;4.548;2023-07-28T07:29:40;19.20;99.90
11583;DHT22;34299;50.820;4.548;2023-07-28T07:32:08;19.20;99.90
11583;DHT22;34299;50.820;4.548;2023-07-28T07:34:36;19.00;99.90
11583;DHT22;34299;50.820;4.548;2023-07-28T07:37:04;19.00;99.90
11583;DHT22;34299;50.820;4.548;2023-07-28T07:39:31;18.90;99.90
11583;DHT22;34299;50.820;4.548;2023-07-28T07:41:59;19.10;99.90
11583;DHT22;34299;50.820;4.548;2023-07-28T07:44:26;19.10;99.90
11583;DHT22;34299;50.820;4.548;2023-07-28T07:46:55;19.10;99.90
11583;DHT22;34299;50.820;4.548;2023-07-28T07:49:23;19.10;99.90
11583;DHT22;34299;50.820;4.548;2023-07-28T07:51:50;19.20;99.90
11583;DHT22;34299;50.820;4.548;2023-07-28T07:54:17;19.30;99.90
11583;DHT22;34299;50.820;4.548;2023-07-28T07:56:44;19.10;99.90
11583;DHT22;34299;50.820;4.548;2023-07-28T07:59:12;19.20;99.90
11583;DHT22;34299;50.820;4.548;2023-07-28T08:01:39;19.40;99.90
11583;DHT22;34299;50.820;4.548;2023-07-28T08:04:08;19.60;99.90
11583;DHT22;34299;50.820;4.548;2023-07-28T08:06:36;19.70;99.90
11583;DHT22;34299;50.820;4.548;2023-07-28T08:09:03;19.80;99.90
11583;DHT22;34299;50.820;4.548;2023-07-28T08:11:30;19.60;99.90
11583;DHT22;34299;50.820;4.548;2023-07-28T08:13:57;19.80;99.90
11583;DHT22;34299;50.820;4.548;2023-07-28T08:16:24;19.70;99.90
11583;DHT22;34299;50.820;4.548;2023-07-28T08:18:51;19.60;99.90
11583;DHT22;34299;50.820;4.548;2023-07-28T08:21:19;19.70;99.90
11583;DHT22;34299;50.820;4.548;2023-07-28T08:23:48;19.60;99.90
11583;DHT22;34299;50.820;4.548;2023-07-28T08:26:15;19.70;99.90
11583;DHT22;34299;50.820;4.548;2023-07-28T08:28:41;19.60;99.90
11583;DHT22;34299;50.820;4.548;2023-07-28T08:31:08;19.60;99.90
11583;DHT22;34299;50.820;4.548;2023-07-28T08:33:35;19.60;99.90
11583;DHT22;34299;50.820;4.548;2023-07-28T08:36:03;19.70;99.90
11583;DHT22;34299;50.820;4.548;2023-07-28T08:38:31;19.90;99.90
11583;DHT22;34299;50.820;4.548;2023-07-28T08:40:58;19.90;99.90
11583;DHT22;34299;50.820;4.548;2023-07-28T08:43:25;20.00;99.90
11583;DHT22;34299;50.820;4.548;2023-07-28T08:45:53;20.20;99.90
11583;DHT22;34299;50.820;4.548;2023-07-28T08:48:20;20.40;99.90
11583;DHT22;34299;50.820;4.548;2023-07-28T08:50:47;20.60;99.90
11583;DHT22;34299;50.820;4.548;2023-07-28T08:53:14;20.70;99.90
11583;DHT22;34299;50.820;4.548;2023-07-28T08:55:43;20.70;99.90
11583;DHT22;34299;50.820;4.548;2023-07-28T08:58:16;20.70;99.90
11583;DHT22;34299;50.820;4.548;2023-07-28T09:00:44;20.30;99.90
11583;DHT22;34299;50.820;4.548;2023-07-28T09:03:14;20.40;99.90
11583;DHT22;34299;50.820;4.548;2023-07-28T09:05:42;20.50;99.90
11583;DHT22;34299;50.820;4.548;2023-07-28T09:08:09;20.70;99.90
11583;DHT22;34299;50.820;4.548;2023-07-28T09:10:45;20.80;99.90
11583;DHT22;34299;50.820;4.548;2023-07-28T09:13:15;20.50;99.90
11583;DHT22;34299;50.820;4.548;2023-07-28T09:15:43;20.50;99.90
11583;DHT22;34299;50.820;4.548;2023-07-28T09:18:11;20.50;99.90
11583;DHT22;34299;50.820;4.548;2023-07-28T09:20:39;20.50;99.90
11583;DHT22;34299;50.820;4.548;2023-07-28T09:23:07;20.40;99.90
11583;DHT22;34299;50.820;4.548;2023-07-28T09:25:35;20.60;99.90
11583;DHT22;34299;50.820;4.548;2023-07-28T09:28:04;20.50;99.90
11583;DHT22;34299;50.820;4.548;2023-07-28T09:30:44;20.50;99.90
11583;DHT22;34299;50.820;4.548;2023-07-28T09:33:12;20.40;99.90
11583;DHT22;34299;50.820;4.548;2023-07-28T09:35:47;20.30;99.90
11583;DHT22;34299;50.820;4.548;2023-07-28T09:38:15;20.20;99.90
11583;DHT22;34299;50.820;4.548;2023-07-28T09:40:43;20.20;99.90
11583;DHT22;34299;50.820;4.548;2023-07-28T09:43:12;20.00;99.90
11583;DHT22;34299;50.820;4.548;2023-07-28T09:45:40;20.20;99.90
11583;DHT22;34299;50.820;4.548;2023-07-28T09:48:08;20.40;99.90
11583;DHT22;34299;50.820;4.548;2023-07-28T09:50:38;20.60;99.90
11583;DHT22;34299;50.820;4.548;2023-07-28T09:53:08;20.80;99.90
11583;DHT22;34299;50.820;4.548;2023-07-28T09:55:35;20.90;99.90
11583;DHT22;34299;50.820;4.548;2023-07-28T09:58:04;21.00;99.90
11583;DHT22;34299;50.820;4.548;2023-07-28T10:00:34;21.30;99.90
11583;DHT22;34299;50.820;4.548;2023-07-28T10:03:02;21.40;99.90
11583;DHT22;34299;50.820;4.548;2023-07-28T10:05:30;21.50;99.90
11583;DHT22;34299;50.820;4.548;2023-07-28T10:07:57;21.60;99.90
11583;DHT22;34299;50.820;4.548;2023-07-28T10:10:25;21.80;99.90
11583;DHT22;34299;50.820;4.548;2023-07-28T10:12:54;21.80;99.90
11583;DHT22;34299;50.820;4.548;2023-07-28T10:15:28;21.80;99.90
11583;DHT22;34299;50.820;4.548;2023-07-28T10:17:57;21.60;99.90
11583;DHT22;34299;50.820;4.548;2023-07-28T10:20:30;21.30;99.90
11583;DHT22;34299;50.820;4.548;2023-07-28T10:23:05;21.20;99.90
11583;DHT22;34299;50.820;4.548;2023-07-28T10:25:34;21.20;99.90
11583;DHT22;34299;50.820;4.548;2023-07-28T10:28:02;21.40;99.90
11583;DHT22;34299;50.820;4.548;2023-07-28T10:30:37;21.40;99.90
11583;DHT22;34299;50.820;4.548;2023-07-28T10:33:06;21.50;99.90
11583;DHT22;34299;50.820;4.548;2023-07-28T10:35:34;21.60;99.90
11583;DHT22;34299;50.820;4.548;2023-07-28T10:38:30;21.70;99.90
11583;DHT22;34299;50.820;4.548;2023-07-28T10:41:08;21.50;99.90
11583;DHT22;34299;50.820;4.548;2023-07-28T10:43:36;21.40;99.90
11583;DHT22;34299;50.820;4.548;2023-07-28T10:46:05;21.30;99.90
11583;DHT22;34299;50.820;4.548;2023-07-28T10:48:35;21.30;99.90
11583;DHT22;34299;50.820;4.548;2023-07-28T10:51:03;21.40;99.90
11583;DHT22;34299;50.820;4.548;2023-07-28T10:53:31;21.40;99.90
11583;DHT22;34299;50.820;4.548;2023-07-28T10:56:01;21.20;99.90
11583;DHT22;34299;50.820;4.548;2023-07-28T10:58:29;21.50;99.90
11583;DHT22;34299;50.820;4.548;2023-07-28T11:00:56;21.60;99.90
11583;DHT22;34299;50.820;4.548;2023-07-28T11:03:23;21.60;99.90
11583;DHT22;34299;50.820;4.548;2023-07-28T11:05:53;21.80;99.90
11583;DHT22;34299;50.820;4.548;2023-07-28T11:08:22;21.70;99.90
11583;DHT22;34299;50.820;4.548;2023-07-28T11:10:49;21.60;99.90
11583;DHT22;34299;50.820;4.548;2023-07-28T11:13:16;21.40;99.90
11583;DHT22;34299;50.820;4.548;2023-07-28T11:15:43;21.30;99.90
11583;DHT22;34299;50.820;4.548;2023-07-28T11:18:10;21.10;99.90
11583;DHT22;34299;50.820;4.548;2023-07-28T11:20:37;21.20;99.90
11583;DHT22;34299;50.820;4.548;2023-07-28T11:23:05;21.10;99.90
11583;DHT22;34299;50.820;4.548;2023-07-28T11:25:34;21.30;99.90
11583;DHT22;34299;50.820;4.548;2023-07-28T11:28:02;21.40;99.90
11583;DHT22;34299;50.820;4.548;2023-07-28T11:30:31;21.50;99.90
11583;DHT22;34299;50.820;4.548;2023-07-28T11:32:59;22.00;99.90
11583;DHT22;34299;50.820;4.548;2023-07-28T11:35:26;22.30;99.90
11583;DHT22;34299;50.820;4.548;2023-07-28T11:37:53;22.50;99.90
11583;DHT22;34299;50.820;4.548;2023-07-28T11:40:23;22.40;99.90
11583;DHT22;34299;50.820;4.548;2023-07-28T11:42:53;22.30;99.90
11583;DHT22;34299;50.820;4.548;2023-07-28T11:45:21;22.50;99.90
11583;DHT22;34299;50.820;4.548;2023-07-28T11:47:55;22.60;99.90
11583;DHT22;34299;50.820;4.548;2023-07-28T11:50:23;22.60;99.90
11583;DHT22;34299;50.820;4.548;2023-07-28T11:52:50;22.40;99.90
11583;DHT22;34299;50.820;4.548;2023-07-28T11:55:18;22.00;99.90
11583;DHT22;34299;50.820;4.548;2023-07-28T11:57:48;21.80;99.90
11583;DHT22;34299;50.820;4.548;2023-07-28T12:00:15;21.90;99.90
11583;DHT22;34299;50.820;4.548;2023-07-28T12:02:44;22.00;99.90
11583;DHT22;34299;50.820;4.548;2023-07-28T12:05:13;22.10;99.90
11583;DHT22;34299;50.820;4.548;2023-07-28T12:07:40;22.40;99.90
11583;DHT22;34299;50.820;4.548;2023-07-28T12:10:08;22.50;99.90
11583;DHT22;34299;50.820;4.548;2023-07-28T12:12:45;23.10;99.90
11583;DHT22;34299;50.820;4.548;2023-07-28T12:15:21;23.00;99.90
11583;DHT22;34299;50.820;4.548;2023-07-28T12:18:06;23.50;99.90
11583;DHT22;34299;50.820;4.548;2023-07-28T12:20:34;23.90;99.90
11583;DHT22;34299;50.820;4.548;2023-07-28T12:23:03;23.90;99.90
11583;DHT22;34299;50.820;4.548;2023-07-28T12:25:30;24.00;99.90
11583;DHT22;34299;50.820;4.548;2023-07-28T12:27:57;24.00;99.90
11583;DHT22;34299;50.820;4.548;2023-07-28T12:30:26;23.90;99.90
11583;DHT22;34299;50.820;4.548;2023-07-28T12:32:53;23.80;99.90
11583;DHT22;34299;50.820;4.548;2023-07-28T12:35:20;23.80;99.90
11583;DHT22;34299;50.820;4.548;2023-07-28T12:37:49;23.50;99.90
11583;DHT22;34299;50.820;4.548;2023-07-28T12:40:16;23.00;99.90
11583;DHT22;34299;50.820;4.548;2023-07-28T12:42:44;22.70;99.90
11583;DHT22;34299;50.820;4.548;2023-07-28T12:45:11;23.00;99.90
11583;DHT22;34299;50.820;4.548;2023-07-28T12:47:40;22.90;99.90
11583;DHT22;34299;50.820;4.548;2023-07-28T12:50:08;23.00;99.90
11583;DHT22;34299;50.820;4.548;2023-07-28T12:52:35;23.20;99.90
11583;DHT22;34299;50.820;4.548;2023-07-28T12:55:03;23.50;99.90
11583;DHT22;34299;50.820;4.548;2023-07-28T12:57:30;23.80;99.90
11583;DHT22;34299;50.820;4.548;2023-07-28T12:59:57;24.20;99.90
11583;DHT22;34299;50.820;4.548;2023-07-28T13:02:24;24.70;99.90
11583;DHT22;34299;50.820;4.548;2023-07-28T13:04:52;25.00;99.90
11583;DHT22;34299;50.820;4.548;2023-07-28T13:07:19;25.30;99.90
11583;DHT22;34299;50.820;4.548;2023-07-28T13:09:48;25.50;99.90
11583;DHT22;34299;50.820;4.548;2023-07-28T13:12:15;26.10;99.90
11583;DHT22;34299;50.820;4.548;2023-07-28T13:14:42;26.50;99.90
11583;DHT22;34299;50.820;4.548;2023-07-28T13:17:08;26.10;99.90
11583;DHT22;34299;50.820;4.548;2023-07-28T13:19:37;25.80;99.90
11583;DHT22;34299;50.820;4.548;2023-07-28T13:22:06;25.50;99.90
11583;DHT22;34299;50.820;4.548;2023-07-28T13:24:33;25.00;99.90
11583;DHT22;34299;50.820;4.548;2023-07-28T13:26:59;24.70;99.90
11583;DHT22;34299;50.820;4.548;2023-07-28T13:29:26;24.70;99.90
11583;DHT22;34299;50.820;4.548;2023-07-28T13:31:58;24.70;99.90
11583;DHT22;34299;50.820;4.548;2023-07-28T13:34:25;24.60;99.90
11583;DHT22;34299;50.820;4.548;2023-07-28T13:36:52;24.20;99.90
11583;DHT22;34299;50.820;4.548;2023-07-28T13:39:21;24.00;99.90
11583;DHT22;34299;50.820;4.548;2023-07-28T13:41:48;24.00;99.90
11583;DHT22;34299;50.820;4.548;2023-07-28T13:44:15;23.80;99.90
11583;DHT22;34299;50.820;4.548;2023-07-28T13:46:42;23.60;99.90
11583;DHT22;34299;50.820;4.548;2023-07-28T13:49:09;23.30;99.90
11583;DHT22;34299;50.820;4.548;2023-07-28T13:51:36;23.50;99.90
11583;DHT22;34299;50.820;4.548;2023-07-28T13:54:03;23.70;99.90
11583;DHT22;34299;50.820;4.548;2023-07-28T13:56:31;24.10;99.90
11583;DHT22;34299;50.820;4.548;2023-07-28T13:58:58;24.70;99.90
11583;DHT22;34299;50.820;4.548;2023-07-28T14:01:25;25.10;99.90
11583;DHT22;34299;50.820;4.548;2023-07-28T14:03:52;25.60;99.90
11583;DHT22;34299;50.820;4.548;2023-07-28T14:06:19;26.00;99.90
11583;DHT22;34299;50.820;4.548;2023-07-28T14:08:46;26.00;99.90
11583;DHT22;34299;50.820;4.548;2023-07-28T14:11:13;26.00;99.90
11583;DHT22;34299;50.820;4.548;2023-07-28T14:13:41;26.10;99.90
11583;DHT22;34299;50.820;4.548;2023-07-28T14:16:08;26.50;99.90
11583;DHT22;34299;50.820;4.548;2023-07-28T14:18:36;27.20;99.90
11583;DHT22;34299;50.820;4.548;2023-07-28T14:21:03;27.70;99.90
11583;DHT22;34299;50.820;4.548;2023-07-28T14:23:30;28.40;99.90
11583;DHT22;34299;50.820;4.548;2023-07-28T14:25:57;28.60;99.90
11583;DHT22;34299;50.820;4.548;2023-07-28T14:28:24;28.50;99.90
11583;DHT22;34299;50.820;4.548;2023-07-28T14:30:53;28.10;99.90
11583;DHT22;34299;50.820;4.548;2023-07-28T14:33:20;27.30;99.90
11583;DHT22;34299;50.820;4.548;2023-07-28T14:35:48;26.80;99.90
11583;DHT22;34299;50.820;4.548;2023-07-28T14:38:15;26.60;99.90
11583;DHT22;34299;50.820;4.548;2023-07-28T14:40:43;26.40;99.90
11583;DHT22;34299;50.820;4.548;2023-07-28T14:43:14;26.40;99.90
11583;DHT22;34299;50.820;4.548;2023-07-28T14:45:41;26.90;99.90
11583;DHT22;34299;50.820;4.548;2023-07-28T14:48:09;27.50;99.90
11583;DHT22;34299;50.820;4.548;2023-07-28T14:50:36;27.90;99.90
11583;DHT22;34299;50.820;4.548;2023-07-28T14:53:03;28.60;99.90
11583;DHT22;34299;50.820;4.548;2023-07-28T14:55:51;29.10;99.90
11583;DHT22;34299;50.820;4.548;2023-07-28T14:58:18;29.30;99.90
11583;DHT22;34299;50.820;4.548;2023-07-28T15:00:45;30.00;99.90
11583;DHT22;34299;50.820;4.548;2023-07-28T15:03:12;30.40;99.90
11583;DHT22;34299;50.820;4.548;2023-07-28T15:05:39;30.60;99.90
11583;DHT22;34299;50.820;4.548;2023-07-28T15:08:06;30.80;99.90
11583;DHT22;34299;50.820;4.548;2023-07-28T15:10:33;30.70;99.90
11583;DHT22;34299;50.820;4.548;2023-07-28T15:13:01;30.90;99.90
11583;DHT22;34299;50.820;4.548;2023-07-28T15:15:28;30.90;99.90
11583;DHT22;34299;50.820;4.548;2023-07-28T15:17:55;30.50;99.90
11583;DHT22;34299;50.820;4.548;2023-07-28T15:20:22;30.00;99.90
11583;DHT22;34299;50.820;4.548;2023-07-28T15:22:50;30.00;99.90
11583;DHT22;34299;50.820;4.548;2023-07-28T15:25:16;30.00;99.90
11583;DHT22;34299;50.820;4.548;2023-07-28T15:27:43;30.40;99.90
11583;DHT22;34299;50.820;4.548;2023-07-28T15:30:12;30.40;99.90
11583;DHT22;34299;50.820;4.548;2023-07-28T15:32:39;30.30;99.90
11583;DHT22;34299;50.820;4.548;2023-07-28T15:35:07;30.20;99.90